sensor_id;sensor_type;location;lat;lon;timestamp;P1;durP1;ratioP1;P2;durP2;ratioP2
28551;SDS011;15752;49.560;8.708;2023-01-31T00:00:47;11.00;;;5.23;;
28551;SDS011;15752;49.560;8.708;2023-01-31T00:03:17;11.40;;;5.47;;
28551;SDS011;15752;49.560;8.708;2023-01-31T00:05:46;10.20;;;5.43;;
28551;SDS011;15752;49.560;8.708;2023-01-31T00:08:17;12.70;;;5.80;;
28551;SDS011;15752;49.560;8.708;2023-01-31T00:10:45;11.37;;;5.33;;
28551;SDS011;15752;49.560;8.708;2023-01-31T00:13:13;8.83;;;5.50;;
28551;SDS011;15752;49.560;8.708;2023-01-31T00:15:43;10.23;;;5.90;;
28551;SDS011;15752;49.560;8.708;2023-01-31T00:18:14;10.03;;;5.67;;
28551;SDS011;15752;49.560;8.708;2023-01-31T00:20:42;7.13;;;4.57;;
28551;SDS011;15752;49.560;8.708;2023-01-31T00:23:11;7.90;;;5.10;;
28551;SDS011;15752;49.560;8.708;2023-01-31T00:25:39;6.87;;;4.40;;
28551;SDS011;15752;49.560;8.708;2023-01-31T00:28:08;11.83;;;5.20;;
28551;SDS011;15752;49.560;8.708;2023-01-31T00:30:36;8.83;;;5.17;;
28551;SDS011;15752;49.560;8.708;2023-01-31T00:33:06;8.60;;;5.27;;
28551;SDS011;15752;49.560;8.708;2023-01-31T00:35:36;9.10;;;5.53;;
28551;SDS011;15752;49.560;8.708;2023-01-31T00:38:07;7.60;;;4.67;;
28551;SDS011;15752;49.560;8.708;2023-01-31T00:40:35;10.60;;;5.47;;
28551;SDS011;15752;49.560;8.708;2023-01-31T00:43:04;10.40;;;5.67;;
28551;SDS011;15752;49.560;8.708;2023-01-31T00:45:33;8.57;;;5.23;;
28551;SDS011;15752;49.560;8.708;2023-01-31T00:48:02;9.73;;;5.30;;
28551;SDS011;15752;49.560;8.708;2023-01-31T00:50:32;10.57;;;5.60;;
28551;SDS011;15752;49.560;8.708;2023-01-31T00:53:01;8.63;;;4.77;;
28551;SDS011;15752;49.560;8.708;2023-01-31T00:55:29;9.27;;;5.13;;
28551;SDS011;15752;49.560;8.708;2023-01-31T00:57:58;8.37;;;5.07;;
28551;SDS011;15752;49.560;8.708;2023-01-31T01:00:27;9.57;;;6.33;;
28551;SDS011;15752;49.560;8.708;2023-01-31T01:02:56;12.47;;;5.70;;
28551;SDS011;15752;49.560;8.708;2023-01-31T01:05:24;11.53;;;5.37;;
28551;SDS011;15752;49.560;8.708;2023-01-31T01:07:54;8.23;;;4.97;;
28551;SDS011;15752;49.560;8.708;2023-01-31T01:10:23;14.33;;;5.87;;
28551;SDS011;15752;49.560;8.708;2023-01-31T01:12:51;9.20;;;5.63;;
28551;SDS011;15752;49.560;8.708;2023-01-31T01:15:20;7.83;;;4.70;;
28551;SDS011;15752;49.560;8.708;2023-01-31T01:17:48;7.37;;;4.43;;
28551;SDS011;15752;49.560;8.708;2023-01-31T01:20:18;7.20;;;4.50;;
28551;SDS011;15752;49.560;8.708;2023-01-31T01:22:46;10.00;;;5.73;;
28551;SDS011;15752;49.560;8.708;2023-01-31T01:25:16;7.03;;;4.90;;
28551;SDS011;15752;49.560;8.708;2023-01-31T01:27:45;8.13;;;5.40;;
28551;SDS011;15752;49.560;8.708;2023-01-31T01:30:14;8.93;;;4.87;;
28551;SDS011;15752;49.560;8.708;2023-01-31T01:32:43;9.77;;;5.23;;
28551;SDS011;15752;49.560;8.708;2023-01-31T01:35:13;8.10;;;5.00;;
28551;SDS011;15752;49.560;8.708;2023-01-31T01:37:41;8.67;;;5.27;;
28551;SDS011;15752;49.560;8.708;2023-01-31T01:40:10;7.37;;;5.03;;
28551;SDS011;15752;49.560;8.708;2023-01-31T01:42:40;8.97;;;4.33;;
28551;SDS011;15752;49.560;8.708;2023-01-31T01:45:11;8.53;;;5.03;;
28551;SDS011;15752;49.560;8.708;2023-01-31T01:47:46;10.57;;;5.27;;
28551;SDS011;15752;49.560;8.708;2023-01-31T01:50:18;8.77;;;5.00;;
28551;SDS011;15752;49.560;8.708;2023-01-31T01:52:53;11.20;;;5.67;;
28551;SDS011;15752;49.560;8.708;2023-01-31T01:55:28;8.93;;;5.60;;
28551;SDS011;15752;49.560;8.708;2023-01-31T01:58:04;8.97;;;5.70;;
28551;SDS011;15752;49.560;8.708;2023-01-31T02:00:36;9.23;;;5.43;;
28551;SDS011;15752;49.560;8.708;2023-01-31T02:03:06;8.70;;;5.70;;
28551;SDS011;15752;49.560;8.708;2023-01-31T02:05:37;10.10;;;5.70;;
28551;SDS011;15752;49.560;8.708;2023-01-31T02:08:09;9.27;;;5.23;;
28551;SDS011;15752;49.560;8.708;2023-01-31T02:10:41;11.03;;;5.67;;
28551;SDS011;15752;49.560;8.708;2023-01-31T02:13:17;12.03;;;5.83;;
28551;SDS011;15752;49.560;8.708;2023-01-31T02:15:46;8.73;;;4.80;;
28551;SDS011;15752;49.560;8.708;2023-01-31T02:18:16;9.00;;;5.37;;
28551;SDS011;15752;49.560;8.708;2023-01-31T02:20:55;13.17;;;5.40;;
28551;SDS011;15752;49.560;8.708;2023-01-31T02:24:06;10.43;;;5.00;;
28551;SDS011;15752;49.560;8.708;2023-01-31T02:30:20;8.97;;;4.97;;
28551;SDS011;15752;49.560;8.708;2023-01-31T02:33:12;9.77;;;5.17;;
28551;SDS011;15752;49.560;8.708;2023-01-31T02:35:51;7.47;;;4.90;;
28551;SDS011;15752;49.560;8.708;2023-01-31T02:38:32;8.37;;;5.17;;
28551;SDS011;15752;49.560;8.708;2023-01-31T02:41:16;10.93;;;5.40;;
28551;SDS011;15752;49.560;8.708;2023-01-31T02:43:53;10.30;;;5.47;;
28551;SDS011;15752;49.560;8.708;2023-01-31T02:46:43;8.50;;;5.30;;
28551;SDS011;15752;49.560;8.708;2023-01-31T02:49:21;10.27;;;5.40;;
28551;SDS011;15752;49.560;8.708;2023-01-31T02:52:09;6.40;;;4.70;;
28551;SDS011;15752;49.560;8.708;2023-01-31T02:54:51;8.80;;;4.10;;
28551;SDS011;15752;49.560;8.708;2023-01-31T02:57:48;7.60;;;4.40;;
28551;SDS011;15752;49.560;8.708;2023-01-31T03:00:21;10.70;;;4.93;;
28551;SDS011;15752;49.560;8.708;2023-01-31T03:02:50;12.37;;;4.83;;
28551;SDS011;15752;49.560;8.708;2023-01-31T03:05:20;7.27;;;4.63;;
28551;SDS011;15752;49.560;8.708;2023-01-31T03:07:50;15.53;;;5.80;;
28551;SDS011;15752;49.560;8.708;2023-01-31T03:10:44;8.53;;;4.03;;
28551;SDS011;15752;49.560;8.708;2023-01-31T03:13:30;11.40;;;5.10;;
28551;SDS011;15752;49.560;8.708;2023-01-31T03:16:12;6.50;;;4.37;;
28551;SDS011;15752;49.560;8.708;2023-01-31T03:19:22;13.47;;;4.67;;
28551;SDS011;15752;49.560;8.708;2023-01-31T03:21:59;8.13;;;4.77;;
28551;SDS011;15752;49.560;8.708;2023-01-31T03:24:31;7.20;;;4.60;;
28551;SDS011;15752;49.560;8.708;2023-01-31T03:27:02;9.20;;;4.80;;
28551;SDS011;15752;49.560;8.708;2023-01-31T03:29:32;10.10;;;4.87;;
28551;SDS011;15752;49.560;8.708;2023-01-31T03:32:08;8.67;;;4.77;;
28551;SDS011;15752;49.560;8.708;2023-01-31T03:34:45;13.40;;;4.77;;
28551;SDS011;15752;49.560;8.708;2023-01-31T03:37:18;11.57;;;5.20;;
28551;SDS011;15752;49.560;8.708;2023-01-31T03:39:59;8.83;;;4.50;;
28551;SDS011;15752;49.560;8.708;2023-01-31T03:42:33;7.17;;;4.10;;
28551;SDS011;15752;49.560;8.708;2023-01-31T03:45:10;10.03;;;4.40;;
28551;SDS011;15752;49.560;8.708;2023-01-31T03:47:46;7.53;;;3.97;;
28551;SDS011;15752;49.560;8.708;2023-01-31T03:50:18;11.30;;;4.40;;
28551;SDS011;15752;49.560;8.708;2023-01-31T03:52:55;10.10;;;4.87;;
28551;SDS011;15752;49.560;8.708;2023-01-31T03:55:30;7.70;;;4.37;;
28551;SDS011;15752;49.560;8.708;2023-01-31T03:58:03;9.23;;;4.50;;
28551;SDS011;15752;49.560;8.708;2023-01-31T04:00:35;6.90;;;3.83;;
28551;SDS011;15752;49.560;8.708;2023-01-31T04:03:06;9.13;;;4.00;;
28551;SDS011;15752;49.560;8.708;2023-01-31T04:05:41;10.57;;;4.17;;
28551;SDS011;15752;49.560;8.708;2023-01-31T04:08:13;8.73;;;4.33;;
28551;SDS011;15752;49.560;8.708;2023-01-31T04:10:47;5.57;;;3.80;;
28551;SDS011;15752;49.560;8.708;2023-01-31T04:13:17;7.10;;;3.83;;
28551;SDS011;15752;49.560;8.708;2023-01-31T04:15:47;10.47;;;4.67;;
28551;SDS011;15752;49.560;8.708;2023-01-31T04:18:15;9.37;;;4.67;;
28551;SDS011;15752;49.560;8.708;2023-01-31T04:20:44;8.33;;;4.10;;
28551;SDS011;15752;49.560;8.708;2023-01-31T04:23:14;8.87;;;4.30;;
28551;SDS011;15752;49.560;8.708;2023-01-31T04:25:44;11.60;;;5.70;;
28551;SDS011;15752;49.560;8.708;2023-01-31T04:28:13;21.77;;;8.93;;
28551;SDS011;15752;49.560;8.708;2023-01-31T04:30:42;16.37;;;7.03;;
28551;SDS011;15752;49.560;8.708;2023-01-31T04:33:11;14.80;;;5.97;;
28551;SDS011;15752;49.560;8.708;2023-01-31T04:35:39;14.27;;;6.87;;
28551;SDS011;15752;49.560;8.708;2023-01-31T04:38:08;16.77;;;6.53;;
28551;SDS011;15752;49.560;8.708;2023-01-31T04:40:37;11.57;;;6.57;;
28551;SDS011;15752;49.560;8.708;2023-01-31T04:43:06;12.50;;;5.97;;
28551;SDS011;15752;49.560;8.708;2023-01-31T04:45:34;14.03;;;8.27;;
28551;SDS011;15752;49.560;8.708;2023-01-31T04:48:03;23.00;;;13.03;;
28551;SDS011;15752;49.560;8.708;2023-01-31T04:50:33;24.80;;;13.43;;
28551;SDS011;15752;49.560;8.708;2023-01-31T04:53:02;19.43;;;9.87;;
28551;SDS011;15752;49.560;8.708;2023-01-31T04:55:30;18.17;;;10.50;;
28551;SDS011;15752;49.560;8.708;2023-01-31T04:58:00;22.67;;;12.60;;
28551;SDS011;15752;49.560;8.708;2023-01-31T05:00:32;21.47;;;12.33;;
28551;SDS011;15752;49.560;8.708;2023-01-31T05:03:00;26.37;;;13.20;;
28551;SDS011;15752;49.560;8.708;2023-01-31T05:05:29;18.50;;;10.43;;
28551;SDS011;15752;49.560;8.708;2023-01-31T05:08:01;17.50;;;8.53;;
28551;SDS011;15752;49.560;8.708;2023-01-31T05:10:31;37.87;;;24.17;;
28551;SDS011;15752;49.560;8.708;2023-01-31T05:13:03;24.60;;;15.33;;
28551;SDS011;15752;49.560;8.708;2023-01-31T05:15:31;21.13;;;14.10;;
28551;SDS011;15752;49.560;8.708;2023-01-31T05:18:00;22.33;;;13.23;;
28551;SDS011;15752;49.560;8.708;2023-01-31T05:20:30;21.70;;;12.63;;
28551;SDS011;15752;49.560;8.708;2023-01-31T05:23:05;18.43;;;10.07;;
28551;SDS011;15752;49.560;8.708;2023-01-31T05:25:34;16.67;;;9.73;;
28551;SDS011;15752;49.560;8.708;2023-01-31T05:28:05;16.30;;;8.60;;
28551;SDS011;15752;49.560;8.708;2023-01-31T05:30:34;14.60;;;8.23;;
28551;SDS011;15752;49.560;8.708;2023-01-31T05:33:03;12.87;;;7.60;;
28551;SDS011;15752;49.560;8.708;2023-01-31T05:35:31;14.47;;;7.40;;
28551;SDS011;15752;49.560;8.708;2023-01-31T05:38:01;12.40;;;6.43;;
28551;SDS011;15752;49.560;8.708;2023-01-31T05:40:29;10.03;;;5.70;;
28551;SDS011;15752;49.560;8.708;2023-01-31T05:42:58;9.17;;;5.53;;
28551;SDS011;15752;49.560;8.708;2023-01-31T05:45:28;10.10;;;5.47;;
28551;SDS011;15752;49.560;8.708;2023-01-31T05:47:58;10.57;;;5.67;;
28551;SDS011;15752;49.560;8.708;2023-01-31T05:50:26;11.83;;;5.40;;
28551;SDS011;15752;49.560;8.708;2023-01-31T05:53:07;8.23;;;5.40;;
28551;SDS011;15752;49.560;8.708;2023-01-31T05:55:36;9.93;;;5.50;;
28551;SDS011;15752;49.560;8.708;2023-01-31T05:58:05;11.77;;;5.67;;
28551;SDS011;15752;49.560;8.708;2023-01-31T06:00:35;9.67;;;5.60;;
28551;SDS011;15752;49.560;8.708;2023-01-31T06:03:03;17.63;;;6.50;;
28551;SDS011;15752;49.560;8.708;2023-01-31T06:05:32;11.70;;;6.27;;
28551;SDS011;15752;49.560;8.708;2023-01-31T06:08:00;13.40;;;6.47;;
28551;SDS011;15752;49.560;8.708;2023-01-31T06:10:28;9.47;;;5.67;;
28551;SDS011;15752;49.560;8.708;2023-01-31T06:12:57;11.30;;;6.60;;
28551;SDS011;15752;49.560;8.708;2023-01-31T06:15:25;14.90;;;7.03;;
28551;SDS011;15752;49.560;8.708;2023-01-31T06:17:57;16.93;;;8.53;;
28551;SDS011;15752;49.560;8.708;2023-01-31T06:20:26;12.57;;;7.83;;
28551;SDS011;15752;49.560;8.708;2023-01-31T06:22:54;15.70;;;9.00;;
28551;SDS011;15752;49.560;8.708;2023-01-31T06:25:26;15.93;;;9.73;;
28551;SDS011;15752;49.560;8.708;2023-01-31T06:27:54;16.73;;;9.93;;
28551;SDS011;15752;49.560;8.708;2023-01-31T06:30:26;16.20;;;10.73;;
28551;SDS011;15752;49.560;8.708;2023-01-31T06:32:56;20.73;;;12.37;;
28551;SDS011;15752;49.560;8.708;2023-01-31T06:35:26;15.70;;;7.13;;
28551;SDS011;15752;49.560;8.708;2023-01-31T06:37:55;12.50;;;8.30;;
28551;SDS011;15752;49.560;8.708;2023-01-31T06:40:24;16.47;;;8.80;;
28551;SDS011;15752;49.560;8.708;2023-01-31T06:42:53;18.57;;;8.20;;
28551;SDS011;15752;49.560;8.708;2023-01-31T06:45:23;25.10;;;14.40;;
28551;SDS011;15752;49.560;8.708;2023-01-31T06:47:51;17.17;;;10.20;;
28551;SDS011;15752;49.560;8.708;2023-01-31T06:50:21;26.83;;;18.40;;
28551;SDS011;15752;49.560;8.708;2023-01-31T06:52:50;19.77;;;12.33;;
28551;SDS011;15752;49.560;8.708;2023-01-31T06:55:18;16.43;;;9.30;;
28551;SDS011;15752;49.560;8.708;2023-01-31T06:57:47;16.77;;;11.17;;
28551;SDS011;15752;49.560;8.708;2023-01-31T07:00:16;17.83;;;11.73;;
28551;SDS011;15752;49.560;8.708;2023-01-31T07:02:46;20.50;;;12.60;;
28551;SDS011;15752;49.560;8.708;2023-01-31T07:05:15;25.13;;;13.63;;
28551;SDS011;15752;49.560;8.708;2023-01-31T07:07:46;21.20;;;13.60;;
28551;SDS011;15752;49.560;8.708;2023-01-31T07:10:16;16.50;;;10.43;;
28551;SDS011;15752;49.560;8.708;2023-01-31T07:12:45;25.73;;;15.40;;
28551;SDS011;15752;49.560;8.708;2023-01-31T07:15:13;18.33;;;10.60;;
28551;SDS011;15752;49.560;8.708;2023-01-31T07:17:42;16.27;;;11.00;;
28551;SDS011;15752;49.560;8.708;2023-01-31T07:20:11;21.30;;;14.17;;
28551;SDS011;15752;49.560;8.708;2023-01-31T07:22:40;17.00;;;11.70;;
28551;SDS011;15752;49.560;8.708;2023-01-31T07:25:10;16.63;;;9.73;;
28551;SDS011;15752;49.560;8.708;2023-01-31T07:27:38;16.17;;;9.30;;
28551;SDS011;15752;49.560;8.708;2023-01-31T07:30:07;17.10;;;10.03;;
28551;SDS011;15752;49.560;8.708;2023-01-31T07:32:38;16.53;;;8.87;;
28551;SDS011;15752;49.560;8.708;2023-01-31T07:35:09;14.03;;;8.30;;
28551;SDS011;15752;49.560;8.708;2023-01-31T07:37:38;13.00;;;7.77;;
28551;SDS011;15752;49.560;8.708;2023-01-31T07:40:13;12.80;;;7.27;;
28551;SDS011;15752;49.560;8.708;2023-01-31T07:42:42;14.73;;;7.83;;
28551;SDS011;15752;49.560;8.708;2023-01-31T07:45:11;12.17;;;7.10;;
28551;SDS011;15752;49.560;8.708;2023-01-31T07:47:49;13.53;;;7.93;;
28551;SDS011;15752;49.560;8.708;2023-01-31T07:50:18;13.40;;;6.90;;
28551;SDS011;15752;49.560;8.708;2023-01-31T07:52:47;17.07;;;7.50;;
28551;SDS011;15752;49.560;8.708;2023-01-31T07:55:17;11.50;;;7.43;;
28551;SDS011;15752;49.560;8.708;2023-01-31T07:57:46;13.17;;;7.20;;
28551;SDS011;15752;49.560;8.708;2023-01-31T08:00:15;10.93;;;7.60;;
28551;SDS011;15752;49.560;8.708;2023-01-31T08:03:02;16.33;;;7.97;;
28551;SDS011;15752;49.560;8.708;2023-01-31T08:05:48;10.93;;;6.60;;
28551;SDS011;15752;49.560;8.708;2023-01-31T08:08:17;16.33;;;7.80;;
28551;SDS011;15752;49.560;8.708;2023-01-31T08:10:46;14.73;;;8.93;;
28551;SDS011;15752;49.560;8.708;2023-01-31T08:13:15;11.87;;;7.73;;
28551;SDS011;15752;49.560;8.708;2023-01-31T08:15:43;13.17;;;7.63;;
28551;SDS011;15752;49.560;8.708;2023-01-31T08:18:12;14.70;;;7.23;;
28551;SDS011;15752;49.560;8.708;2023-01-31T08:20:40;13.83;;;6.70;;
28551;SDS011;15752;49.560;8.708;2023-01-31T08:23:08;13.13;;;6.87;;
28551;SDS011;15752;49.560;8.708;2023-01-31T08:25:37;11.57;;;6.80;;
28551;SDS011;15752;49.560;8.708;2023-01-31T08:28:07;13.43;;;7.10;;
28551;SDS011;15752;49.560;8.708;2023-01-31T08:30:38;13.03;;;6.77;;
28551;SDS011;15752;49.560;8.708;2023-01-31T08:33:07;17.13;;;8.00;;
28551;SDS011;15752;49.560;8.708;2023-01-31T08:35:37;16.03;;;7.20;;
28551;SDS011;15752;49.560;8.708;2023-01-31T08:38:05;12.03;;;6.87;;
28551;SDS011;15752;49.560;8.708;2023-01-31T08:40:42;10.53;;;6.53;;
28551;SDS011;15752;49.560;8.708;2023-01-31T08:43:12;12.57;;;6.30;;
28551;SDS011;15752;49.560;8.708;2023-01-31T08:45:40;12.03;;;6.33;;
28551;SDS011;15752;49.560;8.708;2023-01-31T08:48:09;12.53;;;7.27;;
28551;SDS011;15752;49.560;8.708;2023-01-31T08:50:38;13.37;;;6.70;;
28551;SDS011;15752;49.560;8.708;2023-01-31T08:53:06;12.63;;;6.67;;
28551;SDS011;15752;49.560;8.708;2023-01-31T08:55:35;12.53;;;6.50;;
28551;SDS011;15752;49.560;8.708;2023-01-31T08:58:03;13.97;;;7.83;;
28551;SDS011;15752;49.560;8.708;2023-01-31T09:00:33;15.50;;;7.27;;
28551;SDS011;15752;49.560;8.708;2023-01-31T09:03:02;14.40;;;7.23;;
28551;SDS011;15752;49.560;8.708;2023-01-31T09:05:30;12.27;;;6.83;;
28551;SDS011;15752;49.560;8.708;2023-01-31T09:07:59;17.47;;;6.90;;
28551;SDS011;15752;49.560;8.708;2023-01-31T09:10:27;15.67;;;7.63;;
28551;SDS011;15752;49.560;8.708;2023-01-31T09:12:55;13.50;;;6.47;;
28551;SDS011;15752;49.560;8.708;2023-01-31T09:15:26;12.90;;;7.13;;
28551;SDS011;15752;49.560;8.708;2023-01-31T09:17:55;13.03;;;5.77;;
28551;SDS011;15752;49.560;8.708;2023-01-31T09:20:24;12.63;;;7.03;;
28551;SDS011;15752;49.560;8.708;2023-01-31T09:22:52;15.07;;;7.30;;
28551;SDS011;15752;49.560;8.708;2023-01-31T09:25:20;13.90;;;6.90;;
28551;SDS011;15752;49.560;8.708;2023-01-31T09:28:09;14.10;;;7.10;;
28551;SDS011;15752;49.560;8.708;2023-01-31T09:30:37;13.70;;;7.30;;
28551;SDS011;15752;49.560;8.708;2023-01-31T09:33:07;13.80;;;6.63;;
28551;SDS011;15752;49.560;8.708;2023-01-31T09:35:35;13.40;;;6.67;;
28551;SDS011;15752;49.560;8.708;2023-01-31T09:38:04;15.20;;;6.63;;
28551;SDS011;15752;49.560;8.708;2023-01-31T09:40:33;15.23;;;7.03;;
28551;SDS011;15752;49.560;8.708;2023-01-31T09:43:07;14.47;;;6.87;;
28551;SDS011;15752;49.560;8.708;2023-01-31T09:45:39;15.17;;;7.23;;
28551;SDS011;15752;49.560;8.708;2023-01-31T09:48:12;11.70;;;6.27;;
28551;SDS011;15752;49.560;8.708;2023-01-31T09:50:46;13.50;;;6.57;;
28551;SDS011;15752;49.560;8.708;2023-01-31T09:53:21;11.93;;;6.30;;
28551;SDS011;15752;49.560;8.708;2023-01-31T09:55:57;15.23;;;7.77;;
28551;SDS011;15752;49.560;8.708;2023-01-31T09:58:45;12.37;;;6.70;;
28551;SDS011;15752;49.560;8.708;2023-01-31T10:01:23;15.43;;;7.13;;
28551;SDS011;15752;49.560;8.708;2023-01-31T10:04:03;13.33;;;7.03;;
28551;SDS011;15752;49.560;8.708;2023-01-31T10:06:51;16.30;;;8.40;;
28551;SDS011;15752;49.560;8.708;2023-01-31T10:09:26;17.07;;;7.27;;
28551;SDS011;15752;49.560;8.708;2023-01-31T10:11:59;15.03;;;7.40;;
28551;SDS011;15752;49.560;8.708;2023-01-31T10:14:38;14.40;;;7.90;;
28551;SDS011;15752;49.560;8.708;2023-01-31T10:17:16;13.30;;;7.83;;
28551;SDS011;15752;49.560;8.708;2023-01-31T10:19:51;12.53;;;7.27;;
28551;SDS011;15752;49.560;8.708;2023-01-31T10:22:25;16.43;;;8.53;;
28551;SDS011;15752;49.560;8.708;2023-01-31T10:25:05;14.83;;;7.73;;
28551;SDS011;15752;49.560;8.708;2023-01-31T10:27:54;16.90;;;8.37;;
28551;SDS011;15752;49.560;8.708;2023-01-31T10:30:31;13.77;;;8.40;;
28551;SDS011;15752;49.560;8.708;2023-01-31T10:33:11;15.27;;;7.83;;
28551;SDS011;15752;49.560;8.708;2023-01-31T10:35:50;13.90;;;8.00;;
28551;SDS011;15752;49.560;8.708;2023-01-31T10:38:21;12.97;;;7.97;;
28551;SDS011;15752;49.560;8.708;2023-01-31T10:40:57;15.97;;;8.07;;
28551;SDS011;15752;49.560;8.708;2023-01-31T10:43:35;15.73;;;7.83;;
28551;SDS011;15752;49.560;8.708;2023-01-31T10:46:09;15.53;;;7.50;;
28551;SDS011;15752;49.560;8.708;2023-01-31T10:48:39;14.50;;;7.23;;
28551;SDS011;15752;49.560;8.708;2023-01-31T10:51:19;13.23;;;7.17;;
28551;SDS011;15752;49.560;8.708;2023-01-31T10:54:20;16.17;;;6.90;;
28551;SDS011;15752;49.560;8.708;2023-01-31T10:57:02;15.67;;;7.60;;
28551;SDS011;15752;49.560;8.708;2023-01-31T10:59:31;14.17;;;7.53;;
28551;SDS011;15752;49.560;8.708;2023-01-31T11:02:03;11.07;;;6.70;;
28551;SDS011;15752;49.560;8.708;2023-01-31T11:04:32;13.33;;;6.73;;
28551;SDS011;15752;49.560;8.708;2023-01-31T11:07:07;14.83;;;6.00;;
28551;SDS011;15752;49.560;8.708;2023-01-31T11:09:37;16.40;;;7.00;;
28551;SDS011;15752;49.560;8.708;2023-01-31T11:12:09;13.83;;;7.03;;
28551;SDS011;15752;49.560;8.708;2023-01-31T11:14:38;12.57;;;7.40;;
28551;SDS011;15752;49.560;8.708;2023-01-31T11:17:07;18.37;;;10.27;;
28551;SDS011;15752;49.560;8.708;2023-01-31T11:19:43;12.87;;;7.47;;
28551;SDS011;15752;49.560;8.708;2023-01-31T11:22:21;13.63;;;6.77;;
28551;SDS011;15752;49.560;8.708;2023-01-31T11:24:53;12.60;;;6.00;;
28551;SDS011;15752;49.560;8.708;2023-01-31T11:27:23;14.17;;;6.40;;
28551;SDS011;15752;49.560;8.708;2023-01-31T11:29:54;14.83;;;6.87;;
28551;SDS011;15752;49.560;8.708;2023-01-31T11:32:26;10.90;;;5.70;;
28551;SDS011;15752;49.560;8.708;2023-01-31T11:34:57;13.57;;;6.50;;
28551;SDS011;15752;49.560;8.708;2023-01-31T11:37:31;11.13;;;5.40;;
28551;SDS011;15752;49.560;8.708;2023-01-31T11:40:01;12.90;;;6.50;;
28551;SDS011;15752;49.560;8.708;2023-01-31T11:42:50;9.67;;;6.00;;
28551;SDS011;15752;49.560;8.708;2023-01-31T11:45:20;12.20;;;7.20;;
28551;SDS011;15752;49.560;8.708;2023-01-31T11:47:53;15.03;;;6.10;;
28551;SDS011;15752;49.560;8.708;2023-01-31T11:50:24;17.43;;;6.40;;
28551;SDS011;15752;49.560;8.708;2023-01-31T11:53:14;9.87;;;5.57;;
28551;SDS011;15752;49.560;8.708;2023-01-31T11:55:45;13.70;;;5.90;;
28551;SDS011;15752;49.560;8.708;2023-01-31T11:58:17;11.27;;;5.80;;
28551;SDS011;15752;49.560;8.708;2023-01-31T12:00:51;11.83;;;5.57;;
28551;SDS011;15752;49.560;8.708;2023-01-31T12:03:22;10.60;;;4.67;;
28551;SDS011;15752;49.560;8.708;2023-01-31T12:05:58;10.73;;;5.70;;
28551;SDS011;15752;49.560;8.708;2023-01-31T12:08:30;14.33;;;8.17;;
28551;SDS011;15752;49.560;8.708;2023-01-31T12:11:03;11.07;;;5.30;;
28551;SDS011;15752;49.560;8.708;2023-01-31T12:13:44;10.93;;;5.07;;
28551;SDS011;15752;49.560;8.708;2023-01-31T12:16:16;11.33;;;4.93;;
28551;SDS011;15752;49.560;8.708;2023-01-31T12:18:49;8.53;;;4.23;;
28551;SDS011;15752;49.560;8.708;2023-01-31T12:21:34;14.87;;;5.03;;
28551;SDS011;15752;49.560;8.708;2023-01-31T12:24:20;14.93;;;5.37;;
28551;SDS011;15752;49.560;8.708;2023-01-31T12:27:04;10.37;;;6.33;;
28551;SDS011;15752;49.560;8.708;2023-01-31T12:29:50;11.73;;;5.07;;
28551;SDS011;15752;49.560;8.708;2023-01-31T12:32:34;7.63;;;4.73;;
28551;SDS011;15752;49.560;8.708;2023-01-31T12:38:16;12.50;;;4.57;;
28551;SDS011;15752;49.560;8.708;2023-01-31T12:41:05;11.37;;;4.70;;
28551;SDS011;15752;49.560;8.708;2023-01-31T12:43:55;9.57;;;4.90;;
28551;SDS011;15752;49.560;8.708;2023-01-31T12:46:44;10.17;;;4.47;;
28551;SDS011;15752;49.560;8.708;2023-01-31T12:49:40;11.13;;;5.27;;
28551;SDS011;15752;49.560;8.708;2023-01-31T12:52:25;9.03;;;5.40;;
28551;SDS011;15752;49.560;8.708;2023-01-31T12:55:02;9.77;;;4.87;;
28551;SDS011;15752;49.560;8.708;2023-01-31T12:57:46;11.70;;;5.60;;
28551;SDS011;15752;49.560;8.708;2023-01-31T13:00:32;12.30;;;5.03;;
28551;SDS011;15752;49.560;8.708;2023-01-31T13:03:12;11.63;;;5.17;;
28551;SDS011;15752;49.560;8.708;2023-01-31T13:06:05;8.23;;;4.30;;
28551;SDS011;15752;49.560;8.708;2023-01-31T13:08:41;7.63;;;4.50;;
28551;SDS011;15752;49.560;8.708;2023-01-31T13:11:34;8.97;;;5.00;;
28551;SDS011;15752;49.560;8.708;2023-01-31T13:14:10;9.10;;;5.50;;
28551;SDS011;15752;49.560;8.708;2023-01-31T13:16:43;10.87;;;5.17;;
28551;SDS011;15752;49.560;8.708;2023-01-31T13:19:14;9.73;;;5.20;;
28551;SDS011;15752;49.560;8.708;2023-01-31T13:21:50;8.03;;;5.13;;
28551;SDS011;15752;49.560;8.708;2023-01-31T13:24:23;10.20;;;5.20;;
28551;SDS011;15752;49.560;8.708;2023-01-31T13:26:55;8.53;;;5.23;;
28551;SDS011;15752;49.560;8.708;2023-01-31T13:29:29;7.33;;;4.43;;
28551;SDS011;15752;49.560;8.708;2023-01-31T13:32:03;9.50;;;5.50;;
28551;SDS011;15752;49.560;8.708;2023-01-31T13:34:38;7.37;;;4.90;;
28551;SDS011;15752;49.560;8.708;2023-01-31T13:37:16;11.37;;;5.13;;
28551;SDS011;15752;49.560;8.708;2023-01-31T13:39:47;11.43;;;5.53;;
28551;SDS011;15752;49.560;8.708;2023-01-31T13:42:19;8.53;;;4.47;;
28551;SDS011;15752;49.560;8.708;2023-01-31T13:44:48;8.47;;;4.83;;
28551;SDS011;15752;49.560;8.708;2023-01-31T13:47:19;8.67;;;4.67;;
28551;SDS011;15752;49.560;8.708;2023-01-31T13:49:52;7.10;;;4.40;;
28551;SDS011;15752;49.560;8.708;2023-01-31T13:52:26;7.10;;;4.63;;
28551;SDS011;15752;49.560;8.708;2023-01-31T13:54:58;11.00;;;5.17;;
28551;SDS011;15752;49.560;8.708;2023-01-31T13:57:31;9.90;;;5.57;;
28551;SDS011;15752;49.560;8.708;2023-01-31T14:00:06;8.57;;;5.53;;
28551;SDS011;15752;49.560;8.708;2023-01-31T14:02:58;9.60;;;5.10;;
28551;SDS011;15752;49.560;8.708;2023-01-31T14:08:26;8.23;;;5.53;;
28551;SDS011;15752;49.560;8.708;2023-01-31T14:11:34;9.47;;;4.80;;
28551;SDS011;15752;49.560;8.708;2023-01-31T14:14:15;7.07;;;5.20;;
28551;SDS011;15752;49.560;8.708;2023-01-31T14:16:49;8.23;;;5.03;;
28551;SDS011;15752;49.560;8.708;2023-01-31T14:22:33;6.73;;;4.83;;
28551;SDS011;15752;49.560;8.708;2023-01-31T14:25:03;9.20;;;5.07;;
28551;SDS011;15752;49.560;8.708;2023-01-31T14:27:43;8.60;;;5.13;;
28551;SDS011;15752;49.560;8.708;2023-01-31T14:30:31;8.73;;;4.70;;
28551;SDS011;15752;49.560;8.708;2023-01-31T14:33:13;10.87;;;5.83;;
28551;SDS011;15752;49.560;8.708;2023-01-31T14:35:54;8.30;;;4.87;;
28551;SDS011;15752;49.560;8.708;2023-01-31T14:38:37;8.60;;;5.53;;
28551;SDS011;15752;49.560;8.708;2023-01-31T14:41:27;10.23;;;4.83;;
28551;SDS011;15752;49.560;8.708;2023-01-31T14:44:16;7.63;;;4.87;;
28551;SDS011;15752;49.560;8.708;2023-01-31T14:47:02;9.73;;;5.97;;
28551;SDS011;15752;49.560;8.708;2023-01-31T14:49:52;9.57;;;5.73;;
28551;SDS011;15752;49.560;8.708;2023-01-31T14:52:51;9.13;;;5.60;;
28551;SDS011;15752;49.560;8.708;2023-01-31T14:55:38;9.60;;;4.90;;
28551;SDS011;15752;49.560;8.708;2023-01-31T14:58:26;9.60;;;5.33;;
28551;SDS011;15752;49.560;8.708;2023-01-31T15:00:59;10.63;;;5.30;;
28551;SDS011;15752;49.560;8.708;2023-01-31T15:03:33;8.80;;;5.10;;
28551;SDS011;15752;49.560;8.708;2023-01-31T15:06:09;9.53;;;5.77;;
28551;SDS011;15752;49.560;8.708;2023-01-31T15:08:42;7.30;;;5.00;;
28551;SDS011;15752;49.560;8.708;2023-01-31T15:14:18;9.60;;;5.80;;
28551;SDS011;15752;49.560;8.708;2023-01-31T15:17:02;10.77;;;6.07;;
28551;SDS011;15752;49.560;8.708;2023-01-31T15:19:59;8.83;;;5.20;;
28551;SDS011;15752;49.560;8.708;2023-01-31T15:22:42;10.77;;;5.87;;
28551;SDS011;15752;49.560;8.708;2023-01-31T15:25:19;9.30;;;5.70;;
28551;SDS011;15752;49.560;8.708;2023-01-31T15:27:54;9.00;;;5.03;;
28551;SDS011;15752;49.560;8.708;2023-01-31T15:30:23;8.30;;;5.93;;
28551;SDS011;15752;49.560;8.708;2023-01-31T15:32:55;8.70;;;5.93;;